createdAt,value
2017-09-28T00:00:43.509Z,14.43
2017-09-28T00:03:11.978Z,14.42
2017-09-28T00:05:40.426Z,14.42
2017-09-28T00:08:09.662Z,14.39
2017-09-28T00:10:38.107Z,14.33
2017-09-28T00:13:07.347Z,14.35
2017-09-28T00:15:35.794Z,14.36
2017-09-28T00:18:05.014Z,14.37
2017-09-28T00:20:33.486Z,14.35
2017-09-28T00:23:01.934Z,14.36
2017-09-28T00:25:30.409Z,14.36
2017-09-28T00:27:58.854Z,14.35
2017-09-28T00:30:27.341Z,14.31
2017-09-28T00:32:55.786Z,14.32
2017-09-28T00:35:25.013Z,14.29
2017-09-28T00:37:53.454Z,14.29
2017-09-28T00:40:22.689Z,14.29
2017-09-28T00:42:51.133Z,14.25
2017-09-28T00:45:20.462Z,14.27
2017-09-28T00:47:48.968Z,14.28
2017-09-28T00:50:17.549Z,14.26
2017-09-28T00:52:46.030Z,14.30
2017-09-28T00:55:14.619Z,14.28
2017-09-28T00:57:43.061Z,14.27
2017-09-28T01:00:12.302Z,14.27
2017-09-28T01:02:40.776Z,14.27
2017-09-28T01:05:09.222Z,14.27
2017-09-28T01:07:38.454Z,14.27
2017-09-28T01:10:06.893Z,14.24
2017-09-28T01:12:36.133Z,14.23
2017-09-28T01:15:04.631Z,14.23
2017-09-28T01:17:33.092Z,14.22
2017-09-28T01:20:01.590Z,14.24
2017-09-28T01:22:30.066Z,14.21
2017-09-28T01:24:58.558Z,14.22
2017-09-28T01:27:27.137Z,14.18
2017-09-28T01:29:55.582Z,14.19
2017-09-28T01:32:24.818Z,14.20
2017-09-28T01:34:53.265Z,14.18
2017-09-28T01:37:22.522Z,14.18
2017-09-28T01:39:50.968Z,14.17
2017-09-28T01:42:19.414Z,14.19
2017-09-28T01:44:48.653Z,14.16
2017-09-28T01:47:17.098Z,14.13
2017-09-28T01:49:46.331Z,14.15
2017-09-28T01:52:14.779Z,14.11
2017-09-28T01:54:44.125Z,14.10
2017-09-28T01:57:12.573Z,14.04
2017-09-28T01:59:41.910Z,14.00
2017-09-28T02:02:10.354Z,14.01
2017-09-28T02:04:39.690Z,14.01
2017-09-28T02:07:08.142Z,13.99
2017-09-28T02:09:37.382Z,13.96
2017-09-28T02:12:05.834Z,13.90
2017-09-28T02:14:34.318Z,13.89
2017-09-28T02:17:02.764Z,13.87
2017-09-28T02:19:31.230Z,13.91
2017-09-28T02:21:59.681Z,13.88
2017-09-28T02:24:28.129Z,13.82
2017-09-28T02:26:57.573Z,13.82
2017-09-28T02:29:26.018Z,13.83
2017-09-28T02:31:55.346Z,13.81
2017-09-28T02:34:23.834Z,13.75
2017-09-28T02:36:52.301Z,13.74
2017-09-28T02:39:20.746Z,13.74
2017-09-28T02:41:50.605Z,13.67
2017-09-28T02:44:19.049Z,13.68
2017-09-28T02:46:48.392Z,13.62
2017-09-28T02:49:16.846Z,13.60
2017-09-28T02:51:45.317Z,13.60
2017-09-28T02:54:14.546Z,13.56
2017-09-28T02:56:43.038Z,13.55
2017-09-28T02:59:11.521Z,13.49
2017-09-28T03:01:40.021Z,13.52
2017-09-28T03:04:08.587Z,13.50
2017-09-28T03:06:37.070Z,13.43
2017-09-28T03:09:05.655Z,13.39
2017-09-28T03:11:34.102Z,13.37
2017-09-28T03:14:03.334Z,13.37
2017-09-28T03:16:31.786Z,13.40
2017-09-28T03:19:00.262Z,13.39
2017-09-28T03:21:29.474Z,13.35
2017-09-28T03:23:57.941Z,13.32
2017-09-28T03:26:27.149Z,13.34
2017-09-28T03:28:55.625Z,13.30
2017-09-28T03:31:24.838Z,13.30
2017-09-28T03:33:53.309Z,13.26
2017-09-28T03:36:21.749Z,13.26
2017-09-28T03:38:50.222Z,13.28
2017-09-28T03:41:18.685Z,13.24
2017-09-28T03:43:47.154Z,13.20
2017-09-28T03:46:15.627Z,13.22
2017-09-28T03:48:44.074Z,13.21
2017-09-28T03:51:13.431Z,13.25
2017-09-28T03:53:41.880Z,13.19
2017-09-28T03:56:10.395Z,13.20
2017-09-28T03:58:38.842Z,13.21
2017-09-28T04:01:08.076Z,13.22
2017-09-28T04:03:36.558Z,13.22
2017-09-28T04:06:05.030Z,13.19
2017-09-28T04:08:33.522Z,13.18
2017-09-28T04:11:01.999Z,13.17
2017-09-28T04:13:30.449Z,13.18
2017-09-28T04:15:59.787Z,13.21
2017-09-28T04:18:28.269Z,13.20
2017-09-28T04:20:56.854Z,13.19
2017-09-28T04:23:25.306Z,13.18
2017-09-28T04:25:53.797Z,13.14
2017-09-28T04:28:22.255Z,13.18
2017-09-28T04:30:51.478Z,13.13
2017-09-28T04:33:19.949Z,13.11
2017-09-28T04:35:49.166Z,13.11
2017-09-28T04:38:17.633Z,13.10
2017-09-28T04:40:46.223Z,13.06
2017-09-28T04:43:14.697Z,13.06
2017-09-28T04:45:43.927Z,13.05
2017-09-28T04:48:12.394Z,13.04
2017-09-28T04:50:40.847Z,13.00
2017-09-28T04:53:10.192Z,12.95
2017-09-28T04:55:38.641Z,12.97
2017-09-28T04:58:07.118Z,13.02
2017-09-28T05:00:36.333Z,13.01
2017-09-28T05:03:04.837Z,13.01
2017-09-28T05:05:33.281Z,13.07
2017-09-28T05:08:02.498Z,13.07
2017-09-28T05:10:30.969Z,13.06
2017-09-28T05:12:59.483Z,13.13
2017-09-28T05:15:27.964Z,13.09
2017-09-28T05:17:56.449Z,13.09
2017-09-28T05:20:24.914Z,13.07
2017-09-28T05:22:53.412Z,13.02
2017-09-28T05:25:21.995Z,13.06
2017-09-28T05:27:50.442Z,13.07
2017-09-28T05:30:19.678Z,13.04
2017-09-28T05:32:48.146Z,12.99
2017-09-28T05:35:16.618Z,13.05
2017-09-28T05:37:45.062Z,13.04
2017-09-28T05:40:13.604Z,13.01
2017-09-28T05:42:42.053Z,13.00
2017-09-28T05:45:11.286Z,12.99
2017-09-28T05:47:39.734Z,13.02
2017-09-28T05:50:09.068Z,12.95
2017-09-28T05:52:37.538Z,12.95
2017-09-28T05:55:06.034Z,12.99
2017-09-28T05:57:34.617Z,12.97
2017-09-28T06:00:03.061Z,13.01
2017-09-28T06:02:32.399Z,13.06
2017-09-28T06:05:00.846Z,13.06
2017-09-28T06:07:30.081Z,13.00
2017-09-28T06:09:58.563Z,12.92
2017-09-28T06:12:27.034Z,12.94
2017-09-28T06:14:55.482Z,12.86
2017-09-28T06:17:24.721Z,12.87
2017-09-28T06:19:53.171Z,12.88
2017-09-28T06:22:22.509Z,12.80
2017-09-28T06:24:50.958Z,12.79
2017-09-28T06:27:20.218Z,12.84
2017-09-28T06:29:48.666Z,12.78
2017-09-28T06:32:17.154Z,12.79
2017-09-28T06:34:45.738Z,12.85
2017-09-28T06:37:14.186Z,12.83
2017-09-28T06:39:43.419Z,12.76
2017-09-28T06:42:12.402Z,12.66
2017-09-28T06:44:40.901Z,12.67
2017-09-28T06:47:09.378Z,12.55
2017-09-28T06:49:37.846Z,12.55
2017-09-28T06:52:06.294Z,12.52
2017-09-28T06:54:35.534Z,12.54
2017-09-28T06:57:03.963Z,12.53
2017-09-28T06:59:32.505Z,12.54
2017-09-28T07:02:00.986Z,12.52
2017-09-28T07:04:30.265Z,12.45
2017-09-28T07:06:58.771Z,12.52
2017-09-28T07:09:27.241Z,12.45
2017-09-28T07:11:55.689Z,12.55
2017-09-28T07:14:24.943Z,12.49
2017-09-28T07:16:53.413Z,12.48
2017-09-28T07:19:21.903Z,12.54
2017-09-28T07:21:50.369Z,12.47
2017-09-28T07:24:18.814Z,12.44
2017-09-28T07:26:48.048Z,12.45
2017-09-28T07:29:16.493Z,12.42
2017-09-28T07:31:45.725Z,12.53
2017-09-28T07:34:14.223Z,12.60
2017-09-28T07:36:42.807Z,12.63
2017-09-28T07:39:11.289Z,12.63
2017-09-28T07:41:39.869Z,12.68
2017-09-28T07:44:08.354Z,12.75
2017-09-28T07:46:36.909Z,12.72
2017-09-28T07:49:06.107Z,12.75
2017-09-28T07:51:35.367Z,12.79
2017-09-28T07:54:03.819Z,12.87
2017-09-28T07:56:32.302Z,12.84
2017-09-28T07:59:00.882Z,12.80
2017-09-28T08:01:29.336Z,12.94
2017-09-28T08:03:58.669Z,12.79
2017-09-28T08:06:27.122Z,12.80
2017-09-28T08:08:55.635Z,12.92
2017-09-28T08:11:24.116Z,13.04
2017-09-28T08:13:52.585Z,13.15
2017-09-28T08:16:21.029Z,13.28
2017-09-28T08:18:50.383Z,13.23
2017-09-28T08:21:18.825Z,13.19
2017-09-28T08:23:48.070Z,13.18
2017-09-28T08:26:16.539Z,13.27
2017-09-28T08:28:45.015Z,13.27
2017-09-28T08:31:13.510Z,13.26
2017-09-28T08:33:41.990Z,13.37
2017-09-28T08:36:10.569Z,13.35
2017-09-28T08:38:39.022Z,13.50
2017-09-28T08:41:08.258Z,13.38
2017-09-28T08:43:36.739Z,13.43
2017-09-28T08:46:05.214Z,13.49
2017-09-28T08:48:33.665Z,13.61
2017-09-28T08:51:02.898Z,13.46
2017-09-28T08:53:31.345Z,13.57
2017-09-28T08:56:00.582Z,13.55
2017-09-28T08:58:29.060Z,13.55
2017-09-28T09:00:57.545Z,13.46
2017-09-28T09:03:25.993Z,13.63
2017-09-28T09:05:55.230Z,13.62
2017-09-28T09:08:23.678Z,13.75
2017-09-28T09:10:52.146Z,13.70
2017-09-28T09:13:21.389Z,13.81
2017-09-28T09:15:49.974Z,13.84
2017-09-28T09:18:18.453Z,13.86
2017-09-28T09:20:46.896Z,13.67
2017-09-28T09:23:16.138Z,13.73
2017-09-28T09:25:44.617Z,13.69
2017-09-28T09:28:13.090Z,13.71
2017-09-28T09:30:41.534Z,13.82
2017-09-28T09:33:10.770Z,13.85
2017-09-28T09:35:39.214Z,13.93
2017-09-28T09:38:08.544Z,14.01
2017-09-28T09:40:36.986Z,14.01
2017-09-28T09:43:05.527Z,14.00
2017-09-28T09:45:33.973Z,13.99
2017-09-28T09:48:03.306Z,13.94
2017-09-28T09:50:31.758Z,13.98
2017-09-28T09:53:01.096Z,14.17
2017-09-28T09:55:29.541Z,14.37
2017-09-28T09:57:59.081Z,14.58
2017-09-28T10:00:27.525Z,14.54
2017-09-28T10:02:56.753Z,14.53
2017-09-28T10:05:25.347Z,14.77
2017-09-28T10:07:57.581Z,15.03
2017-09-28T10:10:30.418Z,15.14
2017-09-28T10:13:05.669Z,15.18
2017-09-28T10:15:38.329Z,15.17
2017-09-28T10:18:06.773Z,15.31
2017-09-28T10:20:36.006Z,15.31
2017-09-28T10:23:04.486Z,15.06
2017-09-28T10:25:32.954Z,15.22
2017-09-28T10:28:01.455Z,15.20
2017-09-28T10:30:29.934Z,15.11
2017-09-28T10:32:58.401Z,15.21
2017-09-28T10:35:26.847Z,15.29
2017-09-28T10:37:56.081Z,15.31
2017-09-28T10:40:24.529Z,15.31
2017-09-28T10:42:53.756Z,15.49
2017-09-28T10:45:22.256Z,15.48
2017-09-28T10:47:50.726Z,15.52
2017-09-28T10:50:19.222Z,15.58
2017-09-28T10:52:47.805Z,15.36
2017-09-28T10:55:16.287Z,15.56
2017-09-28T10:57:44.871Z,15.58
2017-09-28T11:00:13.354Z,15.52
2017-09-28T11:02:41.826Z,15.47
2017-09-28T11:05:10.318Z,15.64
2017-09-28T11:07:38.800Z,16.06
2017-09-28T11:10:07.282Z,16.09
2017-09-28T11:12:35.725Z,16.30
2017-09-28T11:15:05.045Z,16.39
2017-09-28T11:17:33.547Z,16.40
2017-09-28T11:20:02.130Z,16.30
2017-09-28T11:22:30.583Z,16.21
2017-09-28T11:24:59.821Z,16.01
2017-09-28T11:27:28.294Z,16.15
2017-09-28T11:29:56.766Z,16.36
2017-09-28T11:32:25.211Z,16.46
2017-09-28T11:34:54.445Z,16.37
2017-09-28T11:37:22.977Z,16.18
2017-09-28T11:39:51.448Z,16.10
2017-09-28T11:42:19.894Z,16.13
2017-09-28T11:44:48.384Z,16.06
2017-09-28T11:47:16.830Z,16.02
2017-09-28T11:49:46.092Z,16.12
2017-09-28T11:52:14.537Z,16.15
2017-09-28T11:54:42.989Z,16.38
2017-09-28T11:57:12.229Z,16.48
2017-09-28T11:59:40.677Z,16.39
2017-09-28T12:02:09.918Z,16.62
2017-09-28T12:04:38.369Z,16.86
2017-09-28T12:07:06.837Z,16.83
2017-09-28T12:09:36.077Z,16.88
2017-09-28T12:12:04.548Z,17.09
2017-09-28T12:14:33.012Z,17.30
2017-09-28T12:17:01.485Z,17.48
2017-09-28T12:19:30.717Z,17.18
2017-09-28T12:21:59.189Z,17.23
2017-09-28T12:24:27.633Z,17.21
2017-09-28T12:26:56.868Z,17.20
2017-09-28T12:29:25.308Z,17.32
2017-09-28T12:31:54.565Z,17.55
2017-09-28T12:34:23.009Z,17.64
2017-09-28T12:36:52.242Z,17.63
2017-09-28T12:39:20.714Z,17.59
2017-09-28T12:41:49.203Z,17.62
2017-09-28T12:44:17.674Z,17.60
2017-09-28T12:46:46.314Z,17.53
2017-09-28T12:49:15.553Z,17.44
2017-09-28T12:51:43.998Z,17.53
2017-09-28T12:54:12.474Z,17.41
2017-09-28T12:56:41.019Z,17.44
2017-09-28T12:59:09.604Z,17.37
2017-09-28T13:01:38.113Z,17.46
2017-09-28T13:04:06.694Z,17.53
2017-09-28T13:06:35.142Z,17.64
2017-09-28T13:09:03.613Z,17.70
2017-09-28T13:11:32.061Z,17.80
2017-09-28T13:14:01.394Z,17.74
2017-09-28T13:16:29.900Z,17.79
2017-09-28T13:18:58.395Z,17.92
2017-09-28T13:21:26.874Z,17.87
2017-09-28T13:23:55.322Z,17.79
2017-09-28T13:26:23.830Z,17.66
2017-09-28T13:28:52.277Z,17.68
2017-09-28T13:31:20.770Z,17.63
2017-09-28T13:33:49.274Z,17.60
2017-09-28T13:36:17.854Z,17.62
2017-09-28T13:38:46.340Z,17.66
2017-09-28T13:41:15.028Z,17.50
2017-09-28T13:43:43.510Z,17.46
2017-09-28T13:46:12.090Z,17.30
2017-09-28T13:48:40.538Z,17.25
2017-09-28T13:51:09.878Z,17.30
2017-09-28T13:53:39.259Z,17.29
2017-09-28T13:56:07.762Z,17.31
2017-09-28T13:58:36.233Z,17.40
2017-09-28T14:01:04.726Z,17.29
2017-09-28T14:03:33.203Z,17.40
2017-09-28T14:06:01.659Z,17.52
2017-09-28T14:08:30.129Z,17.56
2017-09-28T14:10:59.341Z,17.52
2017-09-28T14:13:27.810Z,17.48
2017-09-28T14:15:57.054Z,17.47
2017-09-28T14:18:25.637Z,17.49
2017-09-28T14:20:54.078Z,17.51
2017-09-28T14:23:23.319Z,17.45
2017-09-28T14:25:51.802Z,17.42
2017-09-28T14:28:20.384Z,17.47
2017-09-28T14:30:48.830Z,17.47
2017-09-28T14:33:17.281Z,17.58
2017-09-28T14:35:45.757Z,17.67
2017-09-28T14:38:14.202Z,17.65
2017-09-28T14:40:42.670Z,17.74
2017-09-28T14:43:11.117Z,17.82
2017-09-28T14:45:39.696Z,17.77
2017-09-28T14:48:08.142Z,17.82
2017-09-28T14:50:36.608Z,17.68
2017-09-28T14:53:05.054Z,17.66
2017-09-28T14:55:34.291Z,17.60
2017-09-28T14:58:02.737Z,17.61
2017-09-28T15:00:32.084Z,17.65
2017-09-28T15:03:00.526Z,17.62
2017-09-28T15:05:29.764Z,17.55
2017-09-28T15:07:58.250Z,17.48
2017-09-28T15:10:26.817Z,17.44
2017-09-28T15:12:55.261Z,17.33
2017-09-28T15:15:24.478Z,17.33
2017-09-28T15:17:53.714Z,17.25
2017-09-28T15:20:22.162Z,17.14
2017-09-28T15:22:51.597Z,17.09
2017-09-28T15:25:20.078Z,17.07
2017-09-28T15:27:48.555Z,17.01
2017-09-28T15:30:17.042Z,17.08
2017-09-28T15:32:45.513Z,17.11
2017-09-28T15:35:14.006Z,17.11
2017-09-28T15:37:42.474Z,17.10
2017-09-28T15:40:10.921Z,17.08
2017-09-28T15:42:40.157Z,17.06
2017-09-28T15:45:08.602Z,17.08
2017-09-28T15:47:37.837Z,17.09
2017-09-28T15:50:06.337Z,17.07
2017-09-28T15:52:34.916Z,17.04
2017-09-28T15:55:03.366Z,17.01
2017-09-28T15:57:32.601Z,17.09
2017-09-28T16:00:01.070Z,17.07
2017-09-28T16:02:29.532Z,17.12
2017-09-28T16:04:58.048Z,16.98
2017-09-28T16:07:26.494Z,16.96
2017-09-28T16:09:55.836Z,16.95
2017-09-28T16:12:24.286Z,16.92
2017-09-28T16:14:52.767Z,16.91
2017-09-28T16:17:21.214Z,16.86
2017-09-28T16:19:49.754Z,16.87
2017-09-28T16:22:18.202Z,16.79
2017-09-28T16:24:47.497Z,16.74
2017-09-28T16:27:17.526Z,16.73
2017-09-28T16:29:45.995Z,16.73
2017-09-28T16:32:15.214Z,16.69
2017-09-28T16:34:43.705Z,16.62
2017-09-28T16:37:12.191Z,16.62
2017-09-28T16:39:40.638Z,16.61
2017-09-28T16:42:09.965Z,16.54
2017-09-28T16:44:38.409Z,16.48
2017-09-28T16:47:06.949Z,16.47
2017-09-28T16:49:35.435Z,16.43
2017-09-28T16:52:03.907Z,16.45
2017-09-28T16:54:32.395Z,16.37
2017-09-28T16:57:00.867Z,16.33
2017-09-28T16:59:29.314Z,16.31
2017-09-28T17:01:58.556Z,16.30
2017-09-28T17:04:27.655Z,16.28
2017-09-28T17:06:56.132Z,16.29
2017-09-28T17:09:24.578Z,16.27
2017-09-28T17:11:53.918Z,16.25
2017-09-28T17:14:22.494Z,16.26
2017-09-28T17:16:50.938Z,16.24
2017-09-28T17:19:20.173Z,16.23
2017-09-28T17:21:48.665Z,16.19
2017-09-28T17:24:17.133Z,16.17
2017-09-28T17:26:45.578Z,16.16
2017-09-28T17:29:14.817Z,16.11
2017-09-28T17:31:43.306Z,16.11
2017-09-28T17:34:11.777Z,16.10
2017-09-28T17:36:40.230Z,16.04
2017-09-28T17:39:09.461Z,16.04
2017-09-28T17:41:37.912Z,16.02
2017-09-28T17:44:07.255Z,15.96
2017-09-28T17:46:35.706Z,15.92
2017-09-28T17:49:04.218Z,15.84
2017-09-28T17:51:32.691Z,15.78
2017-09-28T17:54:01.182Z,15.75
2017-09-28T17:56:29.666Z,15.69
2017-09-28T17:58:58.246Z,15.69
2017-09-28T18:01:26.730Z,15.65
2017-09-28T18:03:55.179Z,15.61
2017-09-28T18:06:24.509Z,15.61
2017-09-28T18:08:52.954Z,15.58
2017-09-28T18:11:22.196Z,15.59
2017-09-28T18:13:50.642Z,15.54
2017-09-28T18:16:19.876Z,15.55
2017-09-28T18:18:48.329Z,15.54
2017-09-28T18:21:16.798Z,15.54
2017-09-28T18:23:46.011Z,15.55
2017-09-28T18:26:14.487Z,15.49
2017-09-28T18:28:43.721Z,15.51
2017-09-28T18:31:12.194Z,15.47
2017-09-28T18:33:40.642Z,15.47
2017-09-28T18:36:09.887Z,15.41
2017-09-28T18:38:38.334Z,15.43
2017-09-28T18:41:07.566Z,15.39
2017-09-28T18:43:36.013Z,15.35
2017-09-28T18:46:04.466Z,15.33
2017-09-28T18:48:32.946Z,15.27
2017-09-28T18:51:01.394Z,15.25
2017-09-28T18:53:29.863Z,15.24
2017-09-28T18:55:58.358Z,15.19
2017-09-28T18:58:26.831Z,15.15
2017-09-28T19:00:55.282Z,15.10
2017-09-28T19:03:24.595Z,15.06
2017-09-28T19:05:53.042Z,15.07
2017-09-28T19:08:21.510Z,15.01
2017-09-28T19:10:49.962Z,14.97
2017-09-28T19:13:18.420Z,15.00
2017-09-28T19:15:46.862Z,15.00
2017-09-28T19:18:15.353Z,14.97
2017-09-28T19:20:43.944Z,14.94
2017-09-28T19:23:13.159Z,14.90
2017-09-28T19:25:42.597Z,14.91
2017-09-28T19:28:11.054Z,14.93
2017-09-28T19:30:39.522Z,14.92
2017-09-28T19:33:08.735Z,14.93
2017-09-28T19:35:37.210Z,14.90
2017-09-28T19:38:05.657Z,14.89
2017-09-28T19:40:34.133Z,14.85
2017-09-28T19:43:02.583Z,14.87
2017-09-28T19:45:31.054Z,14.87
2017-09-28T19:47:59.503Z,14.84
2017-09-28T19:50:28.848Z,14.83
2017-09-28T19:52:57.376Z,14.80
2017-09-28T19:55:25.915Z,14.82
2017-09-28T19:57:54.367Z,14.83
2017-09-28T20:00:22.833Z,14.81
2017-09-28T20:02:52.046Z,14.75
2017-09-28T20:05:20.533Z,14.75
2017-09-28T20:07:49.038Z,14.75
2017-09-28T20:10:17.522Z,14.77
2017-09-28T20:12:46.109Z,14.76
2017-09-28T20:15:14.590Z,14.73
2017-09-28T20:17:43.064Z,14.76
2017-09-28T20:20:11.523Z,14.75
2017-09-28T20:22:39.993Z,14.76
2017-09-28T20:25:09.234Z,14.81
2017-09-28T20:27:37.714Z,14.75
2017-09-28T20:30:06.202Z,14.78
2017-09-28T20:32:34.668Z,14.86
2017-09-28T20:35:03.165Z,14.85
2017-09-28T20:37:31.634Z,14.86
2017-09-28T20:40:00.087Z,14.87
2017-09-28T20:42:29.428Z,14.87
2017-09-28T20:44:57.874Z,14.89
2017-09-28T20:47:27.089Z,14.86
2017-09-28T20:49:55.591Z,14.83
2017-09-28T20:52:24.039Z,14.74
2017-09-28T20:54:53.274Z,14.71
2017-09-28T20:57:21.753Z,14.71
2017-09-28T20:59:50.314Z,14.70
2017-09-28T21:02:18.821Z,14.70
2017-09-28T21:04:47.290Z,14.70
2017-09-28T21:07:15.738Z,14.72
2017-09-28T21:09:45.085Z,14.70
2017-09-28T21:12:13.534Z,14.77
2017-09-28T21:14:42.018Z,14.84
2017-09-28T21:17:11.229Z,14.90
2017-09-28T21:19:39.707Z,14.93
2017-09-28T21:22:08.156Z,14.94
2017-09-28T21:24:37.308Z,14.98
2017-09-28T21:27:05.781Z,14.92
2017-09-28T21:29:34.239Z,14.97
2017-09-28T21:32:03.478Z,15.00
2017-09-28T21:34:31.925Z,15.00
2017-09-28T21:37:00.436Z,14.98
2017-09-28T21:39:28.917Z,15.00
2017-09-28T21:41:57.385Z,15.00
2017-09-28T21:44:25.882Z,15.07
2017-09-28T21:46:54.351Z,15.07
2017-09-28T21:49:22.846Z,15.04
2017-09-28T21:51:51.317Z,15.13
2017-09-28T21:54:19.770Z,15.15
2017-09-28T21:56:49.069Z,15.18
2017-09-28T21:59:18.312Z,15.18
2017-09-28T22:01:46.878Z,15.21
2017-09-28T22:04:15.336Z,15.18
2017-09-28T22:06:44.575Z,15.18
2017-09-28T22:09:13.026Z,15.18
2017-09-28T22:11:42.258Z,15.13
2017-09-28T22:14:10.729Z,15.14
2017-09-28T22:16:39.219Z,15.13
2017-09-28T22:19:07.817Z,15.12
2017-09-28T22:21:36.289Z,15.13
2017-09-28T22:24:04.757Z,15.09
2017-09-28T22:26:33.206Z,15.08
2017-09-28T22:29:02.552Z,15.02
2017-09-28T22:31:30.998Z,15.01
2017-09-28T22:34:00.339Z,15.00
2017-09-28T22:36:28.786Z,14.97
2017-09-28T22:38:58.118Z,14.97
2017-09-28T22:41:26.562Z,14.94
2017-09-28T22:43:55.817Z,14.90
2017-09-28T22:46:24.261Z,14.91
2017-09-28T22:48:52.767Z,14.84
2017-09-28T22:51:21.349Z,14.83
2017-09-28T22:53:49.902Z,14.83
2017-09-28T22:56:19.134Z,14.81
2017-09-28T22:58:47.577Z,14.78
2017-09-28T23:01:16.812Z,14.82
2017-09-28T23:09:39.943Z,14.83
2017-09-28T23:12:08.422Z,14.81
2017-09-28T23:14:36.870Z,14.80
2017-09-28T23:17:05.332Z,14.80
2017-09-28T23:19:33.842Z,14.79
2017-09-28T23:22:02.423Z,14.77
2017-09-28T23:24:30.875Z,14.73
2017-09-28T23:26:59.387Z,14.70
2017-09-28T23:29:27.870Z,14.69
2017-09-28T23:31:56.337Z,14.69
2017-09-28T23:34:26.935Z,14.67
2017-09-28T23:36:56.174Z,14.65
2017-09-28T23:39:24.627Z,14.67
2017-09-28T23:41:53.867Z,14.67
2017-09-28T23:44:22.345Z,14.64
2017-09-28T23:46:50.791Z,14.62
2017-09-28T23:49:20.134Z,14.63
2017-09-28T23:51:48.582Z,14.63
2017-09-28T23:54:17.045Z,14.63
2017-09-28T23:56:46.293Z,14.66
2017-09-28T23:59:14.879Z,14.67
